createdAt,value
2022-11-06T00:00:37.613Z,33.65
2022-11-06T00:03:06.297Z,33.38
2022-11-06T00:06:00.516Z,33.51
2022-11-06T00:08:31.020Z,33.37
2022-11-06T00:10:59.241Z,33.64
2022-11-06T00:13:29.334Z,33.55
2022-11-06T00:15:57.506Z,33.34
2022-11-06T00:18:27.706Z,33.32
2022-11-06T00:20:55.799Z,33.45
2022-11-06T00:23:24.199Z,33.34
2022-11-06T00:25:56.475Z,33.42
2022-11-06T00:28:24.955Z,33.62
2022-11-06T00:31:02.319Z,32.92
2022-11-06T00:33:30.700Z,33.81
2022-11-06T00:35:58.749Z,33.35
2022-11-06T00:38:27.291Z,33.39
2022-11-06T00:40:55.403Z,33.39
2022-11-06T00:43:23.888Z,33.33
2022-11-06T00:45:52.445Z,33.36
2022-11-06T00:48:22.275Z,33.38
2022-11-06T00:50:50.359Z,33.49
2022-11-06T00:53:18.971Z,33.10
2022-11-06T00:55:47.089Z,33.46
2022-11-06T00:58:15.798Z,33.37
2022-11-06T01:00:44.302Z,33.18
2022-11-06T01:03:13.037Z,33.17
2022-11-06T01:05:42.664Z,32.99
2022-11-06T01:08:11.352Z,33.30
2022-11-06T01:10:39.732Z,33.06
2022-11-06T01:13:08.247Z,33.38
2022-11-06T01:15:37.553Z,33.04
2022-11-06T01:18:06.148Z,32.94
2022-11-06T01:20:34.321Z,33.23
2022-11-06T01:23:04.277Z,33.29
2022-11-06T01:25:32.344Z,33.51
2022-11-06T01:28:00.859Z,33.29
2022-11-06T01:30:28.896Z,33.42
2022-11-06T01:32:57.305Z,33.47
2022-11-06T01:35:25.451Z,33.61
2022-11-06T01:37:54.000Z,33.52
2022-11-06T01:40:23.411Z,33.21
2022-11-06T01:42:51.932Z,33.68
2022-11-06T01:45:33.230Z,32.73
2022-11-06T01:48:02.520Z,33.25
2022-11-06T01:50:30.761Z,33.48
2022-11-06T01:53:02.584Z,33.34
2022-11-06T01:55:33.196Z,31.90
2022-11-06T01:58:02.775Z,33.19
2022-11-06T02:00:32.555Z,33.33
2022-11-06T02:03:02.011Z,33.17
2022-11-06T02:05:30.251Z,33.54
2022-11-06T02:07:58.999Z,33.31
2022-11-06T02:10:27.162Z,33.55
2022-11-06T02:13:25.120Z,32.33
2022-11-06T02:16:05.473Z,32.80
2022-11-06T02:18:50.929Z,32.31
2022-11-06T02:21:31.724Z,32.86
2022-11-06T02:24:13.937Z,32.66
2022-11-06T02:27:02.934Z,32.60
2022-11-06T02:29:35.035Z,33.11
2022-11-06T02:32:07.575Z,33.16
2022-11-06T02:34:37.651Z,33.45
2022-11-06T02:37:09.407Z,33.00
2022-11-06T02:39:40.317Z,33.35
2022-11-06T02:42:11.733Z,32.86
2022-11-06T02:44:41.508Z,33.60
2022-11-06T02:47:11.393Z,33.59
2022-11-06T02:49:42.877Z,33.37
2022-11-06T02:52:13.089Z,33.13
2022-11-06T02:54:46.172Z,33.02
2022-11-06T02:57:16.585Z,32.86
2022-11-06T02:59:48.562Z,32.79
2022-11-06T03:02:20.428Z,32.94
2022-11-06T03:04:52.639Z,33.02
2022-11-06T03:07:25.773Z,32.67
2022-11-06T03:09:54.145Z,33.48
2022-11-06T03:12:26.361Z,32.62
2022-11-06T03:14:57.780Z,32.71
2022-11-06T03:17:32.665Z,32.47
2022-11-06T03:20:07.508Z,32.66
2022-11-06T03:22:41.529Z,32.66
2022-11-06T03:25:17.035Z,32.60
2022-11-06T03:27:51.425Z,32.94
2022-11-06T03:30:19.962Z,33.55
2022-11-06T03:32:50.917Z,33.23
2022-11-06T03:35:23.334Z,33.18
2022-11-06T03:37:57.678Z,33.10
2022-11-06T03:40:28.843Z,33.57
2022-11-06T03:43:01.595Z,33.65
2022-11-06T03:45:31.402Z,33.82
2022-11-06T03:48:03.918Z,33.55
2022-11-06T03:50:34.548Z,33.78
2022-11-06T03:53:07.210Z,33.84
2022-11-06T03:55:39.397Z,33.89
2022-11-06T03:58:13.129Z,33.72
2022-11-06T04:00:43.508Z,34.25
2022-11-06T04:03:17.811Z,34.30
2022-11-06T04:05:49.697Z,34.24
2022-11-06T04:08:36.701Z,34.86
2022-11-06T04:11:24.367Z,34.79
2022-11-06T04:14:01.983Z,34.81
2022-11-06T04:16:33.309Z,34.81
2022-11-06T04:19:01.562Z,35.04
2022-11-06T04:21:42.553Z,34.58
2022-11-06T04:24:35.081Z,34.43
2022-11-06T04:27:12.871Z,34.64
2022-11-06T04:29:52.147Z,34.83
2022-11-06T04:32:24.129Z,35.03
2022-11-06T04:34:56.887Z,34.75
2022-11-06T04:37:31.963Z,34.85
2022-11-06T04:40:05.887Z,34.89
2022-11-06T04:42:39.226Z,34.77
2022-11-06T04:45:12.683Z,34.69
2022-11-06T04:47:41.073Z,35.47
2022-11-06T04:50:10.855Z,35.08
2022-11-06T04:52:40.312Z,35.57
2022-11-06T04:55:09.004Z,35.53
2022-11-06T04:57:37.524Z,35.59
2022-11-06T05:00:06.713Z,35.54
2022-11-06T05:02:36.714Z,35.46
2022-11-06T05:05:05.365Z,35.95
2022-11-06T05:07:33.801Z,35.87
2022-11-06T05:10:01.847Z,35.79
2022-11-06T05:12:30.243Z,35.78
2022-11-06T05:14:58.340Z,35.96
2022-11-06T05:17:26.680Z,36.18
2022-11-06T05:19:56.103Z,35.69
2022-11-06T05:22:41.807Z,36.20
2022-11-06T05:25:10.110Z,36.35
2022-11-06T05:27:38.620Z,36.18
2022-11-06T05:30:07.984Z,36.12
2022-11-06T05:32:36.317Z,36.11
2022-11-06T05:35:06.377Z,36.08
2022-11-06T05:37:34.722Z,36.04
2022-11-06T05:40:02.882Z,36.16
2022-11-06T05:42:31.261Z,36.38
2022-11-06T05:44:59.339Z,36.45
2022-11-06T05:47:27.797Z,36.25
2022-11-06T05:49:56.017Z,36.44
2022-11-06T05:52:25.792Z,36.04
2022-11-06T05:54:53.873Z,36.13
2022-11-06T05:57:22.230Z,36.23
2022-11-06T05:59:50.388Z,36.24
2022-11-06T06:02:18.819Z,36.37
2022-11-06T06:04:47.249Z,36.33
2022-11-06T06:07:15.691Z,36.48
2022-11-06T06:09:45.227Z,36.38
2022-11-06T06:12:14.304Z,36.35
2022-11-06T06:14:44.648Z,36.36
2022-11-06T06:17:16.295Z,36.26
2022-11-06T06:19:44.316Z,36.36
2022-11-06T06:22:12.673Z,36.01
2022-11-06T06:24:41.219Z,36.27
2022-11-06T06:27:11.241Z,35.76
2022-11-06T06:29:39.353Z,35.86
2022-11-06T06:32:08.083Z,35.65
2022-11-06T06:34:36.125Z,35.15
2022-11-06T06:37:04.523Z,34.85
2022-11-06T06:39:32.607Z,34.11
2022-11-06T06:42:00.950Z,33.85
2022-11-06T06:44:30.511Z,32.97
2022-11-06T06:46:59.071Z,33.41
2022-11-06T06:49:27.114Z,32.96
2022-11-06T06:51:55.596Z,33.13
2022-11-06T06:54:23.592Z,32.66
2022-11-06T06:56:51.923Z,32.21
2022-11-06T06:59:20.000Z,32.05
2022-11-06T07:01:49.809Z,31.34
2022-11-06T07:04:18.268Z,31.17
2022-11-06T07:06:46.700Z,30.82
2022-11-06T07:09:14.843Z,30.38
2022-11-06T07:11:43.149Z,29.83
2022-11-06T07:14:11.446Z,29.44
2022-11-06T07:16:39.905Z,28.79
2022-11-06T07:19:09.418Z,27.91
2022-11-06T07:21:37.991Z,28.03
2022-11-06T07:24:06.936Z,26.72
2022-11-06T07:26:35.360Z,25.39
2022-11-06T07:29:03.454Z,23.15
2022-11-06T07:31:32.247Z,21.12
2022-11-06T07:34:00.495Z,20.31
2022-11-06T07:36:30.665Z,18.65
2022-11-06T07:38:59.107Z,17.53
2022-11-06T07:41:27.474Z,17.11
2022-11-06T07:43:55.539Z,16.50
2022-11-06T07:46:23.917Z,15.46
2022-11-06T07:48:51.970Z,14.88
2022-11-06T07:51:20.384Z,14.49
2022-11-06T07:53:50.087Z,13.25
2022-11-06T07:56:18.814Z,13.05
2022-11-06T07:58:46.858Z,12.36
2022-11-06T08:01:18.626Z,11.50
2022-11-06T08:03:47.914Z,11.51
2022-11-06T08:06:16.302Z,10.99
2022-11-06T08:08:44.482Z,10.86
2022-11-06T08:11:14.549Z,10.67
2022-11-06T08:13:44.169Z,10.52
2022-11-06T08:16:14.561Z,10.02
2022-11-06T08:18:43.171Z,9.88
2022-11-06T08:21:11.578Z,10.22
2022-11-06T08:23:39.650Z,10.13
2022-11-06T08:26:08.391Z,10.55
2022-11-06T08:28:37.944Z,9.64
2022-11-06T08:31:06.739Z,9.71
2022-11-06T08:33:35.580Z,9.29
2022-11-06T08:36:04.515Z,8.93
2022-11-06T08:38:32.875Z,9.00
2022-11-06T08:41:05.741Z,8.44
2022-11-06T08:43:33.854Z,8.74
2022-11-06T08:46:04.589Z,8.42
2022-11-06T08:48:34.174Z,8.49
2022-11-06T08:51:02.739Z,7.89
2022-11-06T08:53:30.902Z,7.87
2022-11-06T08:55:59.419Z,7.46
2022-11-06T08:58:27.496Z,7.28
2022-11-06T09:00:55.936Z,7.14
2022-11-06T09:03:25.578Z,6.92
2022-11-06T09:05:53.961Z,7.24
2022-11-06T09:08:22.204Z,7.12
2022-11-06T09:10:55.779Z,7.24
2022-11-06T09:13:26.372Z,7.05
2022-11-06T09:15:54.862Z,6.42
2022-11-06T09:18:22.889Z,6.60
2022-11-06T09:20:55.535Z,6.40
2022-11-06T09:23:23.735Z,6.11
2022-11-06T09:25:52.248Z,6.06
2022-11-06T09:28:20.312Z,5.67
2022-11-06T09:30:48.836Z,5.77
2022-11-06T09:33:17.068Z,6.00
2022-11-06T09:35:45.972Z,5.09
2022-11-06T09:38:16.452Z,5.76
2022-11-06T09:40:50.137Z,5.30
2022-11-06T09:43:50.107Z,5.05
2022-11-06T09:46:23.783Z,4.77
2022-11-06T09:48:56.638Z,5.12
2022-11-06T09:51:32.291Z,5.42
2022-11-06T09:54:07.097Z,5.15
2022-11-06T09:56:38.014Z,5.65
2022-11-06T09:59:07.732Z,4.87
2022-11-06T10:01:41.821Z,5.27
2022-11-06T10:04:19.828Z,6.03
2022-11-06T10:06:48.544Z,6.55
2022-11-06T10:09:18.717Z,6.97
2022-11-06T10:11:55.100Z,6.91
2022-11-06T10:14:33.703Z,6.45
2022-11-06T10:17:08.483Z,5.89
2022-11-06T10:19:41.420Z,5.42
2022-11-06T10:22:15.609Z,5.48
2022-11-06T10:24:47.810Z,5.93
2022-11-06T10:27:18.105Z,5.67
2022-11-06T10:30:03.186Z,5.39
2022-11-06T10:32:48.783Z,6.04
2022-11-06T10:35:20.415Z,5.09
2022-11-06T10:37:51.804Z,5.25
2022-11-06T10:40:25.507Z,5.43
2022-11-06T10:43:01.668Z,5.20
2022-11-06T10:45:30.576Z,4.94
2022-11-06T10:48:03.722Z,5.30
2022-11-06T10:50:40.659Z,5.51
2022-11-06T10:53:10.816Z,5.66
2022-11-06T10:56:09.698Z,5.42
2022-11-06T10:58:39.805Z,6.07
2022-11-06T11:01:10.546Z,6.11
2022-11-06T11:03:41.556Z,7.93
2022-11-06T11:06:09.686Z,9.10
2022-11-06T11:08:42.873Z,8.93
2022-11-06T11:11:22.805Z,9.39
2022-11-06T11:13:53.494Z,9.19
2022-11-06T11:16:22.881Z,8.70
2022-11-06T11:18:51.935Z,8.04
2022-11-06T11:21:25.885Z,7.65
2022-11-06T11:24:07.395Z,8.13
2022-11-06T11:26:40.841Z,10.03
2022-11-06T11:29:17.399Z,11.95
2022-11-06T11:31:48.074Z,13.70
2022-11-06T11:34:20.115Z,14.89
2022-11-06T11:36:49.858Z,15.96
2022-11-06T11:39:19.871Z,16.70
2022-11-06T11:41:49.382Z,16.25
2022-11-06T11:44:19.734Z,16.16
2022-11-06T11:46:49.328Z,16.95
2022-11-06T11:49:29.014Z,16.44
2022-11-06T11:51:58.286Z,16.34
2022-11-06T11:54:28.717Z,16.58
2022-11-06T11:57:06.059Z,15.88
2022-11-06T11:59:39.134Z,16.64
2022-11-06T12:02:16.146Z,17.33
2022-11-06T12:04:47.056Z,18.14
2022-11-06T12:07:22.663Z,18.65
2022-11-06T12:09:51.520Z,18.77
2022-11-06T12:12:23.648Z,18.71
2022-11-06T12:15:20.091Z,18.61
2022-11-06T12:17:52.660Z,18.72
2022-11-06T12:20:22.756Z,19.22
2022-11-06T12:22:51.954Z,19.50
2022-11-06T12:25:23.969Z,19.31
2022-11-06T12:27:56.639Z,19.08
2022-11-06T12:30:25.141Z,19.70
2022-11-06T12:33:02.979Z,20.05
2022-11-06T12:35:32.863Z,20.36
2022-11-06T12:38:12.969Z,20.59
2022-11-06T12:40:42.810Z,21.00
2022-11-06T12:43:21.138Z,21.31
2022-11-06T12:46:12.386Z,21.43
2022-11-06T12:49:03.068Z,22.21
2022-11-06T12:51:36.275Z,22.58
2022-11-06T12:54:15.163Z,22.25
2022-11-06T12:56:49.838Z,22.96
2022-11-06T12:59:28.172Z,22.91
2022-11-06T13:02:02.280Z,23.31
2022-11-06T13:04:37.505Z,23.15
2022-11-06T13:07:39.634Z,22.85
2022-11-06T13:10:18.361Z,22.86
2022-11-06T13:12:54.745Z,22.96
2022-11-06T13:15:29.233Z,23.44
2022-11-06T13:18:03.233Z,23.67
2022-11-06T13:20:36.525Z,23.88
2022-11-06T13:23:08.398Z,23.90
2022-11-06T13:25:40.327Z,23.81
2022-11-06T13:28:25.863Z,23.42
2022-11-06T13:30:55.564Z,23.87
2022-11-06T13:33:25.997Z,24.11
2022-11-06T13:35:54.124Z,24.07
2022-11-06T13:38:27.404Z,23.98
2022-11-06T13:41:03.351Z,23.95
2022-11-06T13:43:35.702Z,24.04
2022-11-06T13:46:10.224Z,24.03
2022-11-06T13:48:45.553Z,24.38
2022-11-06T13:51:20.606Z,24.40
2022-11-06T13:53:59.653Z,24.77
2022-11-06T13:57:01.178Z,24.47
2022-11-06T14:00:04.095Z,24.78
2022-11-06T14:03:15.417Z,25.16
2022-11-06T14:05:50.955Z,25.75
2022-11-06T14:08:22.359Z,26.96
2022-11-06T14:10:55.170Z,26.72
2022-11-06T14:13:28.781Z,26.89
2022-11-06T14:16:05.955Z,27.21
2022-11-06T14:18:36.312Z,27.70
2022-11-06T14:21:49.650Z,27.69
2022-11-06T14:24:30.461Z,28.35
2022-11-06T14:26:59.118Z,27.57
2022-11-06T14:29:58.953Z,28.24
2022-11-06T14:32:47.249Z,28.36
2022-11-06T14:35:52.154Z,28.42
2022-11-06T14:38:48.994Z,28.45
2022-11-06T14:41:59.651Z,28.69
2022-11-06T14:44:43.843Z,29.32
2022-11-06T14:47:25.808Z,29.62
2022-11-06T14:49:55.825Z,30.46
2022-11-06T14:52:25.583Z,30.50
2022-11-06T14:55:04.448Z,30.43
2022-11-06T14:57:42.826Z,30.54
2022-11-06T15:00:16.130Z,30.67
2022-11-06T15:02:45.193Z,31.06
2022-11-06T15:05:17.948Z,30.85
2022-11-06T15:08:05.978Z,30.64
2022-11-06T15:10:55.621Z,30.58
2022-11-06T15:13:27.337Z,31.16
2022-11-06T15:15:56.556Z,30.07
2022-11-06T15:18:26.314Z,30.71
2022-11-06T15:20:57.608Z,31.05
2022-11-06T15:23:26.728Z,30.18
2022-11-06T15:26:07.985Z,30.64
2022-11-06T15:28:40.644Z,30.85
2022-11-06T15:31:13.139Z,31.94
2022-11-06T15:33:52.910Z,31.95
2022-11-06T15:36:24.014Z,32.43
2022-11-06T15:38:52.830Z,32.84
2022-11-06T15:41:24.816Z,32.10
2022-11-06T15:43:55.070Z,32.53
2022-11-06T15:46:25.861Z,32.60
2022-11-06T15:49:18.752Z,32.79
2022-11-06T15:51:53.731Z,32.81
2022-11-06T15:54:35.921Z,33.16
2022-11-06T15:57:12.590Z,32.80
2022-11-06T15:59:41.123Z,34.42
2022-11-06T16:02:16.092Z,34.06
2022-11-06T16:04:45.215Z,34.17
2022-11-06T16:07:13.591Z,34.38
2022-11-06T16:09:44.246Z,34.42
2022-11-06T16:12:16.222Z,33.72
2022-11-06T16:14:45.507Z,34.00
2022-11-06T16:17:18.516Z,34.10
2022-11-06T16:19:48.844Z,34.78
2022-11-06T16:22:18.817Z,34.70
2022-11-06T16:24:50.092Z,34.61
2022-11-06T16:27:19.845Z,34.03
2022-11-06T16:29:49.715Z,34.99
2022-11-06T16:32:19.683Z,34.69
2022-11-06T16:34:49.465Z,35.28
2022-11-06T16:37:37.967Z,33.96
2022-11-06T16:40:23.172Z,34.77
2022-11-06T16:43:04.371Z,34.55
2022-11-06T16:45:32.742Z,34.65
2022-11-06T16:48:26.736Z,33.92
2022-11-06T16:50:56.917Z,34.65
2022-11-06T16:53:27.606Z,35.46
2022-11-06T16:55:57.668Z,35.53
2022-11-06T16:58:29.437Z,35.90
2022-11-06T17:01:01.279Z,34.73
2022-11-06T17:03:35.736Z,35.47
2022-11-06T17:06:04.124Z,36.21
2022-11-06T17:08:36.918Z,35.75
2022-11-06T17:11:21.590Z,34.93
2022-11-06T17:13:52.300Z,35.34
2022-11-06T17:16:23.100Z,35.92
2022-11-06T17:18:51.785Z,35.99
2022-11-06T17:21:21.395Z,36.15
2022-11-06T17:23:50.324Z,36.28
2022-11-06T17:26:20.991Z,35.77
2022-11-06T17:28:49.814Z,36.26
2022-11-06T17:31:22.240Z,35.78
2022-11-06T17:33:51.486Z,35.75
2022-11-06T17:36:21.680Z,35.79
2022-11-06T17:38:50.375Z,36.10
2022-11-06T17:41:30.140Z,36.29
2022-11-06T17:43:59.621Z,36.04
2022-11-06T17:46:31.442Z,35.74
2022-11-06T17:49:00.904Z,36.09
2022-11-06T17:51:46.910Z,36.13
2022-11-06T17:54:15.714Z,35.98
2022-11-06T17:56:44.980Z,35.65
2022-11-06T17:59:14.676Z,36.79
2022-11-06T18:01:44.477Z,37.06
2022-11-06T18:04:13.050Z,37.10
2022-11-06T18:06:41.325Z,36.46
2022-11-06T18:09:09.904Z,36.40
2022-11-06T18:11:38.111Z,36.83
2022-11-06T18:14:06.735Z,37.24
2022-11-06T18:16:42.312Z,37.24
2022-11-06T18:19:16.549Z,37.22
2022-11-06T18:21:44.869Z,37.23
2022-11-06T18:24:13.361Z,37.48
2022-11-06T18:26:41.848Z,37.32
2022-11-06T18:29:12.253Z,37.78
2022-11-06T18:31:40.556Z,37.61
2022-11-06T18:34:16.704Z,37.58
2022-11-06T18:36:50.313Z,37.73
2022-11-06T18:39:19.377Z,36.41
2022-11-06T18:41:47.610Z,37.38
2022-11-06T18:44:18.020Z,37.96
2022-11-06T18:46:46.333Z,38.31
2022-11-06T18:49:14.970Z,38.48
2022-11-06T18:51:43.388Z,38.33
2022-11-06T18:54:13.847Z,37.79
2022-11-06T18:56:42.316Z,37.93
2022-11-06T18:59:15.491Z,37.40
2022-11-06T19:01:43.711Z,37.50
2022-11-06T19:04:12.536Z,37.33
2022-11-06T19:06:41.034Z,37.49
2022-11-06T19:09:10.878Z,37.55
2022-11-06T19:11:40.679Z,37.41
2022-11-06T19:14:09.346Z,37.71
2022-11-06T19:16:37.641Z,38.04
2022-11-06T19:19:07.474Z,38.16
2022-11-06T19:21:35.857Z,38.70
2022-11-06T19:24:06.254Z,39.08
2022-11-06T19:26:35.730Z,38.73
2022-11-06T19:29:08.604Z,37.73
2022-11-06T19:31:38.148Z,38.34
2022-11-06T19:34:07.655Z,38.00
2022-11-06T19:36:36.644Z,38.04
2022-11-06T19:39:05.216Z,37.54
2022-11-06T19:41:33.985Z,37.75
2022-11-06T19:44:02.193Z,37.62
2022-11-06T19:46:35.999Z,37.71
2022-11-06T19:49:05.225Z,36.93
2022-11-06T19:51:34.435Z,37.06
2022-11-06T19:54:02.853Z,37.19
2022-11-06T19:56:31.257Z,37.06
2022-11-06T19:59:02.461Z,36.54
2022-11-06T20:01:34.622Z,37.52
2022-11-06T20:04:02.995Z,37.83
2022-11-06T20:06:31.587Z,37.43
2022-11-06T20:08:59.994Z,38.41
2022-11-06T20:11:28.684Z,37.94
2022-11-06T20:13:56.919Z,37.63
2022-11-06T20:16:25.426Z,37.44
2022-11-06T20:18:56.462Z,36.71
2022-11-06T20:21:26.502Z,36.82
2022-11-06T20:23:55.059Z,37.10
2022-11-06T20:26:24.095Z,36.89
2022-11-06T20:28:52.328Z,36.68
2022-11-06T20:31:21.846Z,36.41
2022-11-06T20:33:50.660Z,36.89
2022-11-06T20:36:23.186Z,36.47
2022-11-06T20:38:51.954Z,36.43
2022-11-06T20:41:20.550Z,36.13
2022-11-06T20:43:48.965Z,36.34
2022-11-06T20:46:18.220Z,35.98
2022-11-06T20:48:46.907Z,35.61
2022-11-06T20:51:17.611Z,35.30
2022-11-06T20:53:47.215Z,36.07
2022-11-06T20:56:17.550Z,35.88
2022-11-06T20:58:46.263Z,36.53
2022-11-06T21:01:18.166Z,36.30
2022-11-06T21:03:47.034Z,36.21
2022-11-06T21:06:15.967Z,36.42
2022-11-06T21:08:44.234Z,35.82
2022-11-06T21:11:16.887Z,35.78
2022-11-06T21:13:46.581Z,36.12
2022-11-06T21:16:17.441Z,35.57
2022-11-06T21:18:45.853Z,35.40
2022-11-06T21:21:15.900Z,35.80
2022-11-06T21:23:44.195Z,35.89
2022-11-06T21:26:15.241Z,35.25
2022-11-06T21:28:44.501Z,35.52
2022-11-06T21:31:13.939Z,35.43
2022-11-06T21:33:42.691Z,35.48
2022-11-06T21:36:12.918Z,35.84
2022-11-06T21:38:41.347Z,36.32
2022-11-06T21:41:10.967Z,35.53
2022-11-06T21:43:41.402Z,35.66
2022-11-06T21:46:12.524Z,35.57
2022-11-06T21:48:49.089Z,35.46
2022-11-06T21:51:19.699Z,35.65
2022-11-06T21:54:12.033Z,35.18
2022-11-06T21:56:40.997Z,36.14
2022-11-06T21:59:12.672Z,36.43
2022-11-06T22:01:41.863Z,36.31
2022-11-06T22:04:10.854Z,36.10
2022-11-06T22:06:41.015Z,36.15
2022-11-06T22:09:10.128Z,36.70
2022-11-06T22:11:40.241Z,36.95
2022-11-06T22:14:11.947Z,36.65
2022-11-06T22:16:43.660Z,36.65
2022-11-06T22:19:11.601Z,35.51
2022-11-06T22:21:41.300Z,36.72
2022-11-06T22:24:12.093Z,36.53
2022-11-06T22:26:40.855Z,37.07
2022-11-06T22:29:12.026Z,36.60
2022-11-06T22:31:40.592Z,36.40
2022-11-06T22:34:10.105Z,36.54
2022-11-06T22:36:38.702Z,36.98
2022-11-06T22:39:07.921Z,36.81
2022-11-06T22:41:36.351Z,36.97
2022-11-06T22:44:05.209Z,36.88
2022-11-06T22:46:34.986Z,36.74
2022-11-06T22:49:04.273Z,36.92
2022-11-06T22:51:33.695Z,36.82
2022-11-06T22:54:02.643Z,37.02
2022-11-06T22:56:32.456Z,36.56
2022-11-06T22:59:02.076Z,36.18
2022-11-06T23:01:34.813Z,35.75
2022-11-06T23:04:08.625Z,35.99
2022-11-06T23:06:37.190Z,36.88
2022-11-06T23:09:05.537Z,36.78
2022-11-06T23:11:34.050Z,36.69
2022-11-06T23:14:08.303Z,37.00
2022-11-06T23:16:54.853Z,37.10
2022-11-06T23:19:25.106Z,36.98
2022-11-06T23:22:13.623Z,37.19
2022-11-06T23:24:42.334Z,37.54
2022-11-06T23:27:11.003Z,37.11
2022-11-06T23:29:39.840Z,37.80
2022-11-06T23:32:08.026Z,37.30
2022-11-06T23:34:37.747Z,36.90
2022-11-06T23:37:06.145Z,36.83
2022-11-06T23:39:34.703Z,37.12
2022-11-06T23:42:02.763Z,37.10
2022-11-06T23:44:48.972Z,36.57
2022-11-06T23:47:17.238Z,37.33
2022-11-06T23:49:47.641Z,36.74
2022-11-06T23:52:15.789Z,36.50
2022-11-06T23:54:44.452Z,36.51
2022-11-06T23:57:12.781Z,36.98
2022-11-06T23:59:41.362Z,36.56
